Terminal Aerodrome Forecast
Issued by NWS

Home | Current Version | Previous Version | Text Only | Print | Product List | Glossary On
Versions: 1 2 3 4 5 6 7 8 9 10 11 12 13 14 15
936
FTUS42 KMLB 180525
TAFTIX
TAF
KTIX 180525Z 1806/1906 16005KT P6SM SKC
     FM180900 00000KT P6SM SKC
      TEMPO 1811/1813 5SM BR SCT004
     FM181700 05009KT P6SM FEW040
     FM190000 06006KT P6SM FEW035
      AMD NOT SKED 1806/1812=

USA.gov is the U.S. government's official web portal to all federal, state and local government web resources and services.